1221-й км

Карта отелей и гостиниц, располагающихся рядом с аэропортом 1221-й км :

1221-й км Свердловская область 60° 49' 13.7712" N, 60° 34' 34.0788" E
1221-й км Свердловская область 60° 49' 13.7712" N, 60° 34' 34.0788" E
Код аэродрома ИКАО
HDV0
Код аэродрома RU
ХДЖ0
Координаты
N60.82049° E060.57613°
Превышение над уровнем моря
76
Основная полоса
34/16
Курс магнитный
342,9/162,9
Длина основной ВПП
20
Ширина основной ВПП
20
Покрытие основной ВПП
Твёрдое
Освещение ВПП
Нет
Тип: 
Вертодром
Класс аэродрома: 
Принадлежность: 
ГА
Статус: 
Действующий
Сайт: 
E-mail аэродрома: 
Страна: 
Россия
Регион: 
Свердловская область
Город: 
Дополнительная информация: 
Владелец ПП: нет данных.

Найти трансфер

С помощью этой формы Вы можете найти трансфер из аэропорта 1221-й км в город, аэропорт или вокзал:

Карта места

Javascript is required to view this map.

Погода в аэропортах:

Авиационная погода в Ивано-Франковске

Регион: 
Погода METAR: 
UKLI 060800Z 11002MPS 1700 BR OVC004 00/00 Q1007 NOSIG
Время наблюдения
2021-12-06T08:00:00Z
Температура C
0.0
Точка росы
0.0
Направление ветра
110
Скорость ветра (узлы)
4
Метео видимость
1.06
Явления погоды
BR
Условия полета
LIFR
Аэропорт подробнее: 

Авиационная погода в Гродно

Регион: 
Погода METAR: 
UMMG 060800Z 05003MPS 3300 -SN BR OVC008 M03/M03 Q1012 NOSIG
Время наблюдения
2021-12-06T08:00:00Z
Температура C
-3.0
Точка росы
-3.0
Направление ветра
50
Скорость ветра (узлы)
6
Метео видимость
2.05
Явления погоды
-SN BR
Условия полета
IFR
Аэропорт подробнее: 

Авиационная погода в Ботсфьорде

Регион: 
Погода METAR: 
ENBS 061020Z 26022KT 9999 DRSN NSC M06/M10 Q1013
Время наблюдения
2021-12-06T10:20:00Z
Температура C
-6.0
Точка росы
-10.0
Направление ветра
260
Скорость ветра (узлы)
22
Метео видимость
6.21
Явления погоды
DRSN
Условия полета
VFR

Авиационная погода в Николаеве

Регион: 
Погода METAR: 
UKON 061030Z 14007MPS 4500 -SHRA BR SCT005 SCT///CB 08/08 Q1011 NOSIG
Время наблюдения
2021-12-06T10:30:00Z
Температура C
8.0
Точка росы
8.0
Направление ветра
140
Скорость ветра (узлы)
14
Метео видимость
2.8
Явления погоды
-SHRA BR
Условия полета
IFR